Time;durP1;ratioP1;P1;durP2;ratioP2;P2;SDS_P1;SDS_P2;PMS_P1;PMS_P2;Temp;Humidity;BMP_temperature;BMP_pressure;BME280_temperature;BME280_humidity;BME280_pressure;Samples;Min_cycle;Max_cycle;Signal;HPM_P1;HPM_P2
2024/02/18 00:01:05;;;;;;;37.10;23.25;;;9.90;99.90;;;;;;5053066;28;20091;-65
2024/02/18 00:03:30;;;;;;;38.90;23.60;;;9.90;99.90;;;;;;5052593;28;20037;-65
2024/02/18 00:05:57;;;;;;;37.97;23.80;;;9.90;99.90;;;;;;5050495;28;20037;-64
2024/02/18 00:08:23;;;;;;;34.35;22.83;;;9.90;99.90;;;;;;5048796;28;20048;-65
2024/02/18 00:10:49;;;;;;;35.67;22.92;;;9.90;99.90;;;;;;5046772;28;20135;-65
2024/02/18 00:13:14;;;;;;;39.55;22.70;;;9.80;99.90;;;;;;5047997;28;20532;-65
2024/02/18 00:15:40;;;;;;;36.35;22.65;;;9.80;99.90;;;;;;5051678;28;20044;-64
2024/02/18 00:18:06;;;;;;;31.98;21.50;;;9.80;99.90;;;;;;5052185;28;20417;-64
2024/02/18 00:20:31;;;;;;;41.95;22.73;;;9.80;99.90;;;;;;5051683;28;20119;-65
2024/02/18 00:22:57;;;;;;;35.80;22.08;;;9.80;99.90;;;;;;5048327;28;20033;-65
2024/02/18 00:25:23;;;;;;;35.83;22.20;;;9.70;99.90;;;;;;5051792;28;20037;-65
2024/02/18 00:27:48;;;;;;;37.83;21.50;;;9.70;99.90;;;;;;5051902;28;20037;-64
2024/02/18 00:30:14;;;;;;;35.05;21.92;;;9.70;99.90;;;;;;5052524;28;20043;-65
2024/02/18 00:32:40;;;;;;;40.92;20.92;;;9.70;99.90;;;;;;5052487;28;20436;-64
2024/02/18 00:35:06;;;;;;;30.75;20.45;;;9.70;99.90;;;;;;5047618;28;20483;-65
2024/02/18 00:37:31;;;;;;;34.45;20.83;;;9.70;99.90;;;;;;5048964;28;20163;-65
2024/02/18 00:39:57;;;;;;;34.83;20.70;;;9.70;99.90;;;;;;5052244;28;20029;-64
2024/02/18 00:42:24;;;;;;;38.42;20.52;;;9.70;99.90;;;;;;5052126;28;20069;-64
2024/02/18 00:44:49;;;;;;;33.00;19.98;;;9.70;99.90;;;;;;5049730;28;20045;-64
2024/02/18 00:47:15;;;;;;;32.92;19.83;;;9.70;99.90;;;;;;5051750;28;20546;-64
2024/02/18 00:49:40;;;;;;;34.17;19.83;;;9.70;99.90;;;;;;5050521;28;20041;-65
2024/02/18 00:52:06;;;;;;;35.30;19.73;;;9.70;99.90;;;;;;5051615;28;20037;-64
2024/02/18 00:54:32;;;;;;;34.90;19.25;;;9.70;99.90;;;;;;5043787;28;20037;-64
2024/02/18 00:56:58;;;;;;;29.70;18.95;;;9.70;99.90;;;;;;5051273;28;20142;-65
2024/02/18 00:59:24;;;;;;;34.40;18.70;;;9.70;99.90;;;;;;5052248;28;20060;-64
2024/02/18 01:01:50;;;;;;;31.48;19.95;;;9.70;99.90;;;;;;5052168;28;20055;-64
2024/02/18 01:04:16;;;;;;;31.55;18.80;;;9.70;99.90;;;;;;5049278;28;20057;-64
2024/02/18 01:06:41;;;;;;;34.97;18.80;;;9.70;99.90;;;;;;5051458;28;20480;-65
2024/02/18 01:09:07;;;;;;;33.08;19.50;;;9.70;99.90;;;;;;5046556;28;20110;-65
2024/02/18 01:11:33;;;;;;;31.63;18.88;;;9.70;99.90;;;;;;5048454;28;20570;-65
2024/02/18 01:13:59;;;;;;;32.70;19.00;;;9.70;99.90;;;;;;5051565;28;20045;-64
2024/02/18 01:16:27;;;;;;;28.60;18.80;;;10.20;99.90;;;;;;5049458;28;20090;-64
2024/02/18 01:18:52;;;;;;;35.72;18.42;;;9.70;99.90;;;;;;5049099;28;20041;-65
2024/02/18 01:21:18;;;;;;;30.88;18.75;;;9.70;99.90;;;;;;5049713;28;20120;-65
2024/02/18 01:23:44;;;;;;;27.88;18.48;;;9.80;99.90;;;;;;5051067;28;20075;-65
2024/02/18 01:26:09;;;;;;;36.60;19.42;;;9.80;99.90;;;;;;5041455;28;20059;-65
2024/02/18 01:28:35;;;;;;;30.10;17.83;;;9.80;99.90;;;;;;5048526;28;20033;-64
2024/02/18 01:31:01;;;;;;;33.75;18.65;;;9.70;99.90;;;;;;5050456;28;20045;-65
2024/02/18 01:33:27;;;;;;;32.00;17.98;;;9.80;99.90;;;;;;5050300;28;20373;-64
2024/02/18 01:35:52;;;;;;;29.55;17.75;;;9.80;99.90;;;;;;5047860;28;20056;-64
2024/02/18 01:38:18;;;;;;;27.65;17.60;;;9.80;99.90;;;;;;5053099;28;20037;-65
2024/02/18 01:40:44;;;;;;;28.50;16.92;;;9.80;99.90;;;;;;5050850;28;20173;-65
2024/02/18 01:43:10;;;;;;;29.83;17.55;;;9.80;99.90;;;;;;5047382;28;20064;-64
2024/02/18 01:45:35;;;;;;;27.67;16.92;;;9.70;99.90;;;;;;5045298;28;20484;-65
2024/02/18 01:48:01;;;;;;;27.92;18.08;;;9.70;99.90;;;;;;5050323;28;20044;-64
2024/02/18 01:50:28;;;;;;;29.15;17.90;;;9.70;99.90;;;;;;5054105;28;20036;-65
2024/02/18 01:52:54;;;;;;;26.60;15.98;;;9.70;99.90;;;;;;5051118;28;20048;-64
2024/02/18 01:55:26;;;;;;;37.72;16.20;;;9.80;99.90;;;;;;5052625;28;20045;-64
2024/02/18 01:57:52;;;;;;;25.63;16.00;;;9.80;99.90;;;;;;5050137;28;20484;-64
2024/02/18 02:00:18;;;;;;;25.33;15.40;;;9.80;99.90;;;;;;5042010;28;20078;-64
2024/02/18 02:02:47;;;;;;;28.23;15.57;;;9.80;99.90;;;;;;5049227;28;20124;-64
2024/02/18 02:05:17;;;;;;;26.98;15.48;;;9.80;99.90;;;;;;5049540;28;20036;-64
2024/02/18 02:07:43;;;;;;;28.27;15.88;;;9.80;99.90;;;;;;5049414;28;20416;-64
2024/02/18 02:10:12;;;;;;;29.77;16.30;;;9.80;99.90;;;;;;5050647;28;20041;-64
2024/02/18 02:12:41;;;;;;;28.48;15.88;;;9.80;99.90;;;;;;5050094;28;20467;-64
2024/02/18 02:15:09;;;;;;;28.70;14.65;;;9.80;99.90;;;;;;5048103;28;20040;-64
2024/02/18 02:17:34;;;;;;;25.13;14.10;;;9.80;99.90;;;;;;5042118;28;20155;-64
2024/02/18 02:20:00;;;;;;;27.30;14.13;;;9.80;99.90;;;;;;5048511;28;20624;-64
2024/02/18 02:22:26;;;;;;;25.40;13.85;;;9.80;99.90;;;;;;5049940;28;20382;-65
2024/02/18 02:24:52;;;;;;;27.52;14.90;;;9.80;99.90;;;;;;5048152;28;20127;-64
2024/02/18 02:27:24;;;;;;;29.45;14.35;;;9.80;99.90;;;;;;5049717;28;20041;-65
2024/02/18 02:29:50;;;;;;;27.58;13.23;;;9.80;99.90;;;;;;5049903;28;20063;-64
2024/02/18 02:32:15;;;;;;;27.10;14.07;;;9.80;99.90;;;;;;5050421;28;20040;-64
2024/02/18 02:34:41;;;;;;;26.98;13.38;;;9.80;99.90;;;;;;5047802;28;20033;-64
2024/02/18 02:37:06;;;;;;;22.67;12.57;;;9.80;99.90;;;;;;5049760;28;20120;-65
2024/02/18 02:39:32;;;;;;;22.73;12.85;;;9.80;99.90;;;;;;5051514;28;20041;-64
2024/02/18 02:41:59;;;;;;;25.02;12.98;;;9.80;99.90;;;;;;5049670;28;20056;-64
2024/02/18 02:44:25;;;;;;;25.15;11.80;;;9.80;99.90;;;;;;5048885;28;20045;-64
2024/02/18 02:46:51;;;;;;;20.13;11.60;;;9.80;99.90;;;;;;5049540;28;20449;-65
2024/02/18 02:49:16;;;;;;;25.60;13.75;;;9.80;99.90;;;;;;5044248;28;20046;-64
2024/02/18 02:51:43;;;;;;;19.40;12.27;;;9.80;99.90;;;;;;5050386;28;20116;-64
2024/02/18 02:54:09;;;;;;;21.05;11.32;;;9.80;99.90;;;;;;5049434;28;20052;-64
2024/02/18 02:56:34;;;;;;;21.13;10.77;;;9.80;99.90;;;;;;5048303;28;20033;-64
2024/02/18 02:59:00;;;;;;;20.23;11.30;;;9.80;99.90;;;;;;5047924;28;20068;-64
2024/02/18 03:01:26;;;;;;;25.83;10.63;;;9.90;99.90;;;;;;5049185;28;20087;-64
2024/02/18 03:03:51;;;;;;;20.88;10.65;;;9.80;99.90;;;;;;5049580;28;20094;-65
2024/02/18 03:06:17;;;;;;;23.80;10.43;;;9.90;99.90;;;;;;5044403;28;20060;-64
2024/02/18 03:08:45;;;;;;;17.73;10.18;;;9.90;99.90;;;;;;5049592;28;20029;-65
2024/02/18 03:11:11;;;;;;;20.77;9.98;;;9.90;99.90;;;;;;5049727;28;20041;-64
2024/02/18 03:13:37;;;;;;;18.63;9.95;;;9.90;99.90;;;;;;5042287;28;20378;-64
2024/02/18 03:16:03;;;;;;;21.83;9.80;;;9.90;99.90;;;;;;5053988;28;20044;-64
2024/02/18 03:18:29;;;;;;;18.52;9.25;;;9.90;99.90;;;;;;5051205;28;20033;-65
2024/02/18 03:20:55;;;;;;;23.80;8.88;;;9.90;99.90;;;;;;5049961;28;20087;-64
2024/02/18 03:23:20;;;;;;;17.85;8.30;;;9.80;99.90;;;;;;5049346;28;20040;-65
2024/02/18 03:25:47;;;;;;;16.95;8.98;;;9.90;99.90;;;;;;5048839;28;20086;-65
2024/02/18 03:28:13;;;;;;;17.52;8.57;;;9.90;99.90;;;;;;5049282;28;20063;-64
2024/02/18 03:30:40;;;;;;;17.08;8.13;;;9.90;99.90;;;;;;5049055;28;20504;-64
2024/02/18 03:33:05;;;;;;;17.63;8.23;;;9.90;99.90;;;;;;5049513;28;20455;-64
2024/02/18 03:35:31;;;;;;;18.08;7.70;;;9.90;99.90;;;;;;5040943;28;20073;-65
2024/02/18 03:37:58;;;;;;;14.38;7.32;;;10.00;99.90;;;;;;5049059;28;20037;-65
2024/02/18 03:40:24;;;;;;;18.92;7.20;;;9.90;99.90;;;;;;5049069;28;20091;-64
2024/02/18 03:42:50;;;;;;;17.83;7.47;;;10.00;99.90;;;;;;5047380;28;20102;-65
2024/02/18 03:45:16;;;;;;;15.75;7.13;;;10.00;99.90;;;;;;5048796;28;20063;-65
2024/02/18 03:47:43;;;;;;;13.25;7.15;;;10.00;99.90;;;;;;5048628;28;20037;-65
2024/02/18 03:50:14;;;;;;;11.27;6.40;;;10.00;99.90;;;;;;5049282;28;20040;-65
2024/02/18 03:52:42;;;;;;;15.00;7.47;;;10.00;99.90;;;;;;5048516;28;20496;-65
2024/02/18 03:55:13;;;;;;;13.55;6.00;;;10.00;99.90;;;;;;5051017;28;20036;-64
2024/02/18 03:57:40;;;;;;;13.85;5.95;;;10.00;99.90;;;;;;5041544;28;20041;-64
2024/02/18 04:00:07;;;;;;;11.70;5.88;;;10.00;99.90;;;;;;5052529;28;20044;-64
2024/02/18 04:02:41;;;;;;;14.60;6.38;;;10.00;99.90;;;;;;5053787;28;20594;-64
2024/02/18 04:05:09;;;;;;;15.68;5.78;;;10.00;99.90;;;;;;5046921;28;20120;-65
2024/02/18 04:07:34;;;;;;;15.10;6.30;;;10.00;99.90;;;;;;5051975;28;20037;-65
2024/02/18 04:10:01;;;;;;;15.60;5.95;;;10.00;99.90;;;;;;5052767;28;20082;-65
2024/02/18 04:12:27;;;;;;;12.50;5.35;;;10.00;99.90;;;;;;5060430;28;20044;-65
2024/02/18 04:14:53;;;;;;;16.17;6.03;;;10.00;99.90;;;;;;5047133;28;20037;-64
2024/02/18 04:17:18;;;;;;;14.18;5.43;;;10.00;99.90;;;;;;5052354;28;20476;-65
2024/02/18 04:19:44;;;;;;;11.40;4.60;;;10.00;99.90;;;;;;5049075;28;20167;-65
2024/02/18 04:22:11;;;;;;;11.13;4.95;;;10.00;99.90;;;;;;5052689;28;20037;-65
2024/02/18 04:24:36;;;;;;;13.10;5.25;;;10.00;99.90;;;;;;5048295;28;20042;-65
2024/02/18 04:27:07;;;;;;;14.15;4.88;;;10.00;99.90;;;;;;5057276;28;20067;-65
2024/02/18 04:29:32;;;;;;;11.68;5.43;;;10.00;99.90;;;;;;5057423;28;20069;-65
2024/02/18 04:31:58;;;;;;;13.80;5.03;;;10.00;99.90;;;;;;5061374;28;20130;-65
2024/02/18 04:34:23;;;;;;;10.93;4.57;;;10.00;99.90;;;;;;5046453;28;20041;-65
2024/02/18 04:36:49;;;;;;;14.40;4.88;;;10.00;99.90;;;;;;5046075;28;20538;-65
2024/02/18 04:39:15;;;;;;;13.95;5.22;;;10.00;99.90;;;;;;5052041;28;20078;-65
2024/02/18 04:41:41;;;;;;;12.60;5.22;;;10.00;99.90;;;;;;5051828;28;20516;-65
2024/02/18 04:44:07;;;;;;;13.20;4.47;;;10.00;99.90;;;;;;5051399;28;20040;-65
2024/02/18 04:46:33;;;;;;;12.10;5.43;;;10.00;99.90;;;;;;5050079;28;20128;-65
2024/02/18 04:48:59;;;;;;;11.55;4.97;;;10.00;99.90;;;;;;5051495;28;20132;-65
2024/02/18 04:51:25;;;;;;;10.82;5.00;;;10.00;99.90;;;;;;5050213;28;20045;-65
2024/02/18 04:53:51;;;;;;;13.25;5.45;;;10.00;99.90;;;;;;5043098;28;20044;-65
2024/02/18 04:56:17;;;;;;;14.65;5.03;;;9.90;99.90;;;;;;5051630;28;20048;-65
2024/02/18 04:58:42;;;;;;;11.95;4.18;;;10.00;99.90;;;;;;5050414;28;20182;-65
2024/02/18 05:01:11;;;;;;;16.42;4.82;;;10.00;99.90;;;;;;5051940;28;20037;-65
2024/02/18 05:03:37;;;;;;;11.00;5.00;;;10.00;99.90;;;;;;5049781;28;20033;-64
2024/02/18 05:06:07;;;;;;;12.75;4.97;;;10.00;99.90;;;;;;5044489;28;20051;-65
2024/02/18 05:08:33;;;;;;;10.95;4.45;;;10.00;99.90;;;;;;5049858;28;20400;-65
2024/02/18 05:10:58;;;;;;;8.55;4.53;;;10.00;99.90;;;;;;5044505;28;20052;-65
2024/02/18 05:13:24;;;;;;;9.90;4.13;;;10.00;99.90;;;;;;5051653;28;20048;-65
2024/02/18 05:15:51;;;;;;;11.02;4.35;;;10.00;99.90;;;;;;5046213;28;20695;-65
2024/02/18 05:18:18;;;;;;;15.38;4.60;;;10.00;99.90;;;;;;5051005;28;20044;-65
2024/02/18 05:20:44;;;;;;;11.48;4.30;;;10.00;99.90;;;;;;5051426;28;20048;-65
2024/02/18 05:23:10;;;;;;;9.98;4.40;;;9.90;99.90;;;;;;5054357;28;20053;-65
2024/02/18 05:25:36;;;;;;;13.77;4.30;;;9.90;99.90;;;;;;5041188;28;20538;-65
2024/02/18 05:28:02;;;;;;;10.75;4.35;;;9.90;99.90;;;;;;5046600;28;20037;-65
2024/02/18 05:30:27;;;;;;;11.77;4.50;;;9.90;99.90;;;;;;5048478;28;20037;-66
2024/02/18 05:32:53;;;;;;;9.07;3.85;;;9.90;99.90;;;;;;5050305;28;20080;-66
2024/02/18 05:35:19;;;;;;;9.13;4.35;;;9.90;99.90;;;;;;5051586;28;20063;-66
2024/02/18 05:37:44;;;;;;;15.70;4.35;;;9.90;99.90;;;;;;5047901;28;20095;-66
2024/02/18 05:40:10;;;;;;;9.02;4.47;;;10.00;99.90;;;;;;5051277;28;20036;-66
2024/02/18 05:42:36;;;;;;;18.88;6.15;;;9.90;99.90;;;;;;5050853;28;20087;-66
2024/02/18 05:45:02;;;;;;;10.88;4.40;;;9.90;99.90;;;;;;5050391;28;20095;-66
2024/02/18 05:47:28;;;;;;;15.27;4.60;;;9.90;99.90;;;;;;5044840;28;20037;-66
2024/02/18 05:49:54;;;;;;;10.80;4.28;;;9.90;99.90;;;;;;5051433;28;20041;-66
2024/02/18 05:52:19;;;;;;;9.18;3.83;;;9.90;99.90;;;;;;5055626;28;20091;-65
2024/02/18 05:54:45;;;;;;;12.73;4.65;;;9.80;99.90;;;;;;5050432;28;20063;-65
2024/02/18 05:57:12;;;;;;;9.93;4.93;;;9.80;99.90;;;;;;5049952;28;20044;-66
2024/02/18 05:59:38;;;;;;;13.20;4.63;;;9.80;99.90;;;;;;5050687;28;20039;-65
2024/02/18 06:02:03;;;;;;;11.88;4.20;;;9.80;99.90;;;;;;5051003;28;20111;-66
2024/02/18 06:04:29;;;;;;;11.60;4.45;;;9.80;99.90;;;;;;5051062;28;20552;-66
2024/02/18 06:06:56;;;;;;;8.30;4.20;;;9.80;99.90;;;;;;5049468;28;20040;-66
2024/02/18 06:09:23;;;;;;;16.20;4.80;;;9.80;99.90;;;;;;5050888;28;20115;-66
2024/02/18 06:11:49;;;;;;;13.95;5.45;;;9.70;99.90;;;;;;5054544;28;20048;-66
2024/02/18 06:14:15;;;;;;;16.45;5.00;;;9.70;99.90;;;;;;5049766;28;20386;-66
2024/02/18 06:16:40;;;;;;;14.90;5.68;;;9.70;99.90;;;;;;5048225;28;20029;-66
2024/02/18 06:19:06;;;;;;;12.25;4.97;;;9.70;99.90;;;;;;5050678;28;20044;-66
2024/02/18 06:21:31;;;;;;;16.20;5.63;;;9.70;99.90;;;;;;5054644;28;20048;-66
2024/02/18 06:23:57;;;;;;;12.68;5.63;;;9.70;99.90;;;;;;5045366;28;20064;-66
2024/02/18 06:26:24;;;;;;;13.38;5.50;;;9.70;99.90;;;;;;5049941;28;20048;-66
2024/02/18 06:28:49;;;;;;;14.82;6.00;;;9.70;99.90;;;;;;5050450;28;20037;-66
2024/02/18 06:31:15;;;;;;;12.63;5.15;;;9.60;99.90;;;;;;5050458;28;20041;-66
2024/02/18 06:33:45;;;;;;;14.48;5.63;;;9.60;99.90;;;;;;5046026;28;20059;-66
2024/02/18 06:36:11;;;;;;;14.45;6.00;;;9.60;99.90;;;;;;5050321;28;20080;-66
2024/02/18 06:38:41;;;;;;;16.05;5.85;;;9.60;99.90;;;;;;5062279;28;20478;-66
2024/02/18 06:41:06;;;;;;;17.30;6.40;;;9.60;99.90;;;;;;5050892;28;20037;-66
2024/02/18 06:43:32;;;;;;;12.40;6.00;;;9.60;99.90;;;;;;5055063;28;20051;-66
2024/02/18 06:45:57;;;;;;;16.92;6.20;;;9.60;99.90;;;;;;5050152;28;20039;-66
2024/02/18 06:48:23;;;;;;;13.73;5.78;;;9.60;99.90;;;;;;5049954;28;20040;-65
2024/02/18 06:50:49;;;;;;;15.90;6.18;;;9.50;99.90;;;;;;5050110;28;20045;-66
2024/02/18 06:53:15;;;;;;;19.88;6.35;;;9.50;99.90;;;;;;5052765;28;20455;-66
2024/02/18 06:55:40;;;;;;;15.40;6.30;;;9.50;99.90;;;;;;5048898;28;20041;-66
2024/02/18 06:58:08;;;;;;;15.02;6.65;;;9.50;99.90;;;;;;5049919;28;20068;-66
2024/02/18 07:00:34;;;;;;;15.60;6.43;;;9.50;99.90;;;;;;5047620;28;20042;-66
2024/02/18 07:03:00;;;;;;;16.55;6.53;;;9.50;99.90;;;;;;5047098;28;20048;-66
2024/02/18 07:05:25;;;;;;;15.98;6.35;;;9.50;99.90;;;;;;5047020;28;20460;-66
2024/02/18 07:07:51;;;;;;;15.55;6.45;;;9.50;99.90;;;;;;5049976;28;20045;-66
2024/02/18 07:10:17;;;;;;;15.82;6.72;;;9.50;99.90;;;;;;5050229;28;20040;-66
2024/02/18 07:12:43;;;;;;;14.90;6.85;;;9.50;99.90;;;;;;5049557;28;20074;-66
2024/02/18 07:15:10;;;;;;;11.38;5.93;;;9.40;99.90;;;;;;5044322;28;20038;-66
2024/02/18 07:17:35;;;;;;;14.00;7.07;;;9.50;99.90;;;;;;5049755;28;20045;-66
2024/02/18 07:20:01;;;;;;;14.02;6.38;;;9.50;99.90;;;;;;5048888;28;20601;-66
2024/02/18 07:22:27;;;;;;;14.98;6.30;;;9.50;99.90;;;;;;5046871;28;20040;-66
2024/02/18 07:24:52;;;;;;;16.42;6.65;;;9.50;99.90;;;;;;5048188;28;20080;-66
2024/02/18 07:27:18;;;;;;;16.27;6.60;;;9.50;99.90;;;;;;5049676;28;20112;-66
2024/02/18 07:29:44;;;;;;;17.95;6.60;;;9.40;99.90;;;;;;5054813;28;20066;-66
2024/02/18 07:32:09;;;;;;;14.52;6.38;;;9.40;99.90;;;;;;5051759;28;20095;-66
2024/02/18 07:34:35;;;;;;;16.10;7.38;;;9.40;99.90;;;;;;5052945;28;20037;-66
2024/02/18 07:37:00;;;;;;;17.00;6.00;;;9.40;99.90;;;;;;5052206;28;20576;-66
2024/02/18 07:39:27;;;;;;;10.63;5.43;;;9.40;99.90;;;;;;5053765;28;20052;-66
2024/02/18 07:41:53;;;;;;;16.95;5.68;;;9.40;99.90;;;;;;5053346;28;20037;-66
2024/02/18 07:44:18;;;;;;;13.65;6.30;;;9.40;99.90;;;;;;5052726;28;20078;-66
2024/02/18 07:46:45;;;;;;;14.93;6.38;;;9.50;99.90;;;;;;5060779;28;20044;-66
2024/02/18 07:49:13;;;;;;;13.20;5.90;;;9.50;99.90;;;;;;5054432;28;20087;-66
2024/02/18 07:51:38;;;;;;;18.27;5.93;;;9.50;99.90;;;;;;5051725;28;20076;-66
2024/02/18 07:54:04;;;;;;;11.15;6.32;;;9.50;99.90;;;;;;5053573;28;20077;-66
2024/02/18 07:56:30;;;;;;;15.73;5.35;;;9.50;99.90;;;;;;5052164;28;20117;-66
2024/02/18 07:58:55;;;;;;;12.10;5.82;;;9.50;99.90;;;;;;5052939;28;20067;-66
2024/02/18 08:01:21;;;;;;;12.75;5.47;;;9.50;99.90;;;;;;5042681;28;20056;-66
2024/02/18 08:03:46;;;;;;;15.93;5.65;;;9.50;99.90;;;;;;5052359;28;20108;-66
2024/02/18 08:06:12;;;;;;;13.75;5.65;;;9.50;99.90;;;;;;5051710;28;20123;-66
2024/02/18 08:08:38;;;;;;;10.93;5.10;;;9.50;99.90;;;;;;5048517;28;20041;-66
2024/02/18 08:11:03;;;;;;;10.75;5.68;;;9.50;99.90;;;;;;5052953;28;20037;-66
2024/02/18 08:13:29;;;;;;;15.00;5.55;;;9.50;99.90;;;;;;5050780;28;20047;-66
2024/02/18 08:15:56;;;;;;;13.95;5.75;;;9.50;99.90;;;;;;5050701;28;20045;-66
2024/02/18 08:18:22;;;;;;;14.05;5.65;;;9.50;99.90;;;;;;5049774;28;20052;-66
2024/02/18 08:20:47;;;;;;;11.85;5.40;;;9.50;99.90;;;;;;5048346;28;20029;-66
2024/02/18 08:23:13;;;;;;;12.73;5.90;;;9.50;99.90;;;;;;5049437;28;20108;-66
2024/02/18 08:25:38;;;;;;;16.13;5.85;;;9.50;99.90;;;;;;5051535;28;20056;-66
2024/02/18 08:28:04;;;;;;;13.02;6.47;;;9.40;99.90;;;;;;5046760;28;20032;-66
2024/02/18 08:30:30;;;;;;;20.55;5.93;;;9.40;99.90;;;;;;5051344;28;20455;-66
2024/02/18 08:32:56;;;;;;;13.88;5.32;;;9.40;99.90;;;;;;5050600;28;20082;-66
2024/02/18 08:35:22;;;;;;;10.57;5.32;;;9.40;99.90;;;;;;5049903;28;20052;-66
2024/02/18 08:37:51;;;;;;;14.35;5.68;;;9.40;99.90;;;;;;5050359;28;20408;-66
2024/02/18 08:40:17;;;;;;;13.40;5.45;;;9.40;99.90;;;;;;5048283;28;20048;-66
2024/02/18 08:42:42;;;;;;;19.42;5.93;;;9.40;99.90;;;;;;5051538;28;20392;-66
2024/02/18 08:45:08;;;;;;;16.67;5.57;;;9.30;99.90;;;;;;5051304;28;20047;-66
2024/02/18 08:47:34;;;;;;;13.65;5.47;;;9.30;99.90;;;;;;5047513;28;20049;-66
2024/02/18 08:50:02;;;;;;;12.70;5.63;;;9.30;99.90;;;;;;5050435;28;20650;-66
2024/02/18 08:52:28;;;;;;;13.57;5.57;;;9.40;99.90;;;;;;5049449;28;20072;-66
2024/02/18 08:54:53;;;;;;;13.75;5.07;;;9.30;99.90;;;;;;5048590;28;20080;-67
2024/02/18 08:57:19;;;;;;;12.85;5.63;;;9.30;99.90;;;;;;5041976;28;20061;-66
2024/02/18 08:59:45;;;;;;;17.38;5.22;;;9.30;99.90;;;;;;5055014;28;20399;-66
2024/02/18 09:02:10;;;;;;;13.65;5.20;;;9.30;99.90;;;;;;5058688;28;20386;-66
2024/02/18 09:04:36;;;;;;;13.35;5.32;;;9.30;99.90;;;;;;5048281;28;20037;-66
2024/02/18 09:07:02;;;;;;;19.55;6.00;;;9.30;99.90;;;;;;5048145;28;20550;-66
2024/02/18 09:09:28;;;;;;;18.35;4.85;;;9.30;99.90;;;;;;5039798;28;20066;-67
2024/02/18 09:11:53;;;;;;;13.27;5.57;;;9.30;99.90;;;;;;5040058;28;20029;-66
2024/02/18 09:14:19;;;;;;;12.18;4.70;;;9.20;99.90;;;;;;5058005;28;20051;-66
2024/02/18 09:16:44;;;;;;;12.05;5.50;;;9.20;99.90;;;;;;5050501;28;20545;-66
2024/02/18 09:19:10;;;;;;;12.98;4.65;;;9.20;99.90;;;;;;5050993;28;20044;-66
2024/02/18 09:21:36;;;;;;;11.32;5.05;;;9.30;99.90;;;;;;5038977;28;20033;-66
2024/02/18 09:24:01;;;;;;;10.60;5.00;;;9.30;99.90;;;;;;5043159;28;20108;-66
2024/02/18 09:26:27;;;;;;;12.95;4.88;;;9.30;99.90;;;;;;5034281;28;20040;-66
2024/02/18 09:28:53;;;;;;;12.63;4.72;;;9.20;99.90;;;;;;5048912;28;20126;-66
2024/02/18 09:31:18;;;;;;;13.15;5.05;;;9.30;99.90;;;;;;5050643;28;20047;-66
2024/02/18 09:33:44;;;;;;;11.55;5.25;;;10.10;99.90;;;;;;5047668;28;20063;-66
2024/02/18 09:36:10;;;;;;;11.35;4.70;;;9.20;99.90;;;;;;5049991;28;20128;-66
2024/02/18 09:38:37;;;;;;;11.52;4.72;;;9.30;99.90;;;;;;5049391;28;20033;-66
2024/02/18 09:41:03;;;;;;;10.63;4.70;;;9.30;99.90;;;;;;5049458;28;20554;-66
2024/02/18 09:43:38;;;;;;;11.43;5.50;;;9.30;99.90;;;;;;5049370;28;20378;-66
2024/02/18 09:46:05;;;;;;;12.50;5.28;;;9.30;99.90;;;;;;5048555;28;20041;-66
2024/02/18 09:48:32;;;;;;;11.30;5.13;;;9.30;99.90;;;;;;5050185;28;20041;-66
2024/02/18 09:50:58;;;;;;;16.42;5.47;;;9.30;99.90;;;;;;5050490;28;20041;-66
2024/02/18 09:53:25;;;;;;;12.10;4.68;;;9.20;99.90;;;;;;5049933;28;20076;-66
2024/02/18 09:55:51;;;;;;;12.27;5.22;;;9.30;99.90;;;;;;5045497;28;20567;-66
2024/02/18 09:58:18;;;;;;;11.57;5.15;;;9.30;99.90;;;;;;5046886;28;20108;-66
2024/02/18 10:00:45;;;;;;;11.13;5.47;;;9.30;99.90;;;;;;5049095;28;20120;-67
2024/02/18 10:03:11;;;;;;;14.68;5.45;;;9.30;99.90;;;;;;5049768;28;20037;-65
2024/02/18 10:05:36;;;;;;;10.40;4.97;;;9.30;99.90;;;;;;5048048;28;20043;-68
2024/02/18 10:08:02;;;;;;;12.48;5.10;;;9.30;99.90;;;;;;5049142;28;20039;-65
2024/02/18 10:10:34;;;;;;;11.80;5.32;;;9.30;99.90;;;;;;5049893;28;20116;-65
2024/02/18 10:13:05;;;;;;;9.88;4.72;;;9.30;99.90;;;;;;5045602;28;20106;-65
2024/02/18 10:15:31;;;;;;;9.88;5.43;;;9.30;99.90;;;;;;5049848;28;20041;-67
2024/02/18 10:17:57;;;;;;;10.23;5.45;;;9.30;99.90;;;;;;5048750;28;20580;-68
2024/02/18 10:20:26;;;;;;;14.73;5.57;;;9.20;99.90;;;;;;5046765;28;20493;-66
2024/02/18 10:22:51;;;;;;;11.23;5.20;;;9.20;99.90;;;;;;5048086;28;20147;-65
2024/02/18 10:25:18;;;;;;;10.18;5.53;;;9.20;99.90;;;;;;5050233;28;20072;-65
2024/02/18 10:27:44;;;;;;;15.32;6.20;;;9.20;99.90;;;;;;5051147;28;20411;-65
2024/02/18 10:30:11;;;;;;;11.00;5.60;;;9.20;99.90;;;;;;5046095;28;20116;-65
2024/02/18 10:32:37;;;;;;;9.65;5.55;;;9.20;99.90;;;;;;5046047;28;20120;-65
2024/02/18 10:35:05;;;;;;;11.45;6.22;;;9.20;99.90;;;;;;5049930;28;20120;-64
2024/02/18 10:37:41;;;;;;;15.55;5.90;;;9.20;99.90;;;;;;5048594;28;20065;-64
2024/02/18 10:40:17;;;;;;;11.20;6.25;;;9.20;99.90;;;;;;5043323;28;20040;-64
2024/02/18 10:42:51;;;;;;;11.70;6.22;;;9.20;99.90;;;;;;5049346;28;20626;-64
2024/02/18 10:45:18;;;;;;;10.00;5.82;;;9.20;99.90;;;;;;5050335;28;20090;-64
2024/02/18 10:47:50;;;;;;;11.75;6.10;;;9.10;99.90;;;;;;5052666;28;21218;-68
2024/02/18 10:50:17;;;;;;;9.43;5.63;;;9.20;99.90;;;;;;5044889;28;20038;-64
2024/02/18 10:52:46;;;;;;;9.85;6.00;;;9.20;99.90;;;;;;5044053;28;20377;-65
2024/02/18 10:55:17;;;;;;;10.88;5.80;;;9.20;99.90;;;;;;5045878;28;20048;-65
2024/02/18 10:57:49;;;;;;;11.55;6.38;;;9.10;99.90;;;;;;5050222;28;20036;-64
2024/02/18 11:00:18;;;;;;;11.40;5.60;;;9.20;99.90;;;;;;5046589;28;20044;-64
2024/02/18 11:03:11;;;;;;;9.90;6.22;;;9.20;99.90;;;;;;5049008;28;20097;-65
2024/02/18 11:05:38;;;;;;;8.88;5.90;;;9.20;99.90;;;;;;5046438;28;20053;-73
2024/02/18 11:08:07;;;;;;;13.18;5.95;;;9.10;99.90;;;;;;5052919;28;20049;-64
2024/02/18 11:10:34;;;;;;;12.45;6.07;;;9.20;99.90;;;;;;5051012;28;20033;-67
2024/02/18 11:13:00;;;;;;;11.35;6.45;;;9.20;99.90;;;;;;5051152;28;20033;-64
2024/02/18 11:15:25;;;;;;;9.80;5.95;;;9.20;99.90;;;;;;5052806;28;20040;-64
2024/02/18 11:17:51;;;;;;;10.18;5.75;;;9.20;99.90;;;;;;5053349;28;20040;-64
2024/02/18 11:20:18;;;;;;;9.88;5.80;;;9.20;99.90;;;;;;5054103;28;20401;-64
2024/02/18 11:22:44;;;;;;;10.35;5.65;;;9.10;99.90;;;;;;5055763;28;20106;-64
2024/02/18 11:25:11;;;;;;;10.38;5.85;;;9.10;99.90;;;;;;5055308;28;20504;-64
2024/02/18 11:27:37;;;;;;;14.73;6.18;;;9.10;99.90;;;;;;5064247;28;20072;-68
2024/02/18 11:30:04;;;;;;;10.85;5.63;;;9.10;99.90;;;;;;5056479;28;20122;-64
2024/02/18 11:32:30;;;;;;;13.15;6.55;;;9.10;99.90;;;;;;5050395;28;20049;-64
2024/02/18 11:35:05;;;;;;;10.52;5.72;;;9.10;99.90;;;;;;5053306;28;20128;-66
2024/02/18 11:37:34;;;;;;;12.27;6.13;;;9.00;99.90;;;;;;5051306;28;20037;-64
2024/02/18 11:40:10;;;;;;;17.35;5.75;;;9.00;99.90;;;;;;5051548;28;20047;-66
2024/02/18 11:42:37;;;;;;;12.98;5.85;;;9.00;99.90;;;;;;5044739;28;20045;-66
2024/02/18 11:45:19;;;;;;;12.60;5.93;;;9.00;99.90;;;;;;5047875;28;20126;-64
2024/02/18 11:47:52;;;;;;;11.20;6.07;;;9.00;99.90;;;;;;5048889;28;20391;-66
2024/02/18 11:50:19;;;;;;;11.95;5.45;;;9.00;99.90;;;;;;5054566;28;20087;-66
2024/02/18 11:52:49;;;;;;;12.30;5.10;;;9.00;99.90;;;;;;5045504;28;20123;-72
2024/02/18 11:55:17;;;;;;;10.73;5.30;;;9.70;99.90;;;;;;5054111;28;20041;-74
2024/02/18 11:57:43;;;;;;;8.05;4.95;;;9.00;99.90;;;;;;5050624;28;20124;-66
2024/02/18 12:00:10;;;;;;;11.27;5.88;;;9.00;99.90;;;;;;5049450;28;20164;-67
2024/02/18 12:02:40;;;;;;;11.18;5.43;;;8.90;99.90;;;;;;5054112;28;20083;-67
2024/02/18 12:05:09;;;;;;;10.20;5.40;;;8.90;99.90;;;;;;5050629;28;20041;-67
2024/02/18 12:07:37;;;;;;;11.20;5.45;;;9.00;99.90;;;;;;5052228;28;20120;-67
2024/02/18 12:10:03;;;;;;;11.40;5.55;;;8.90;99.90;;;;;;5052751;28;20040;-67
2024/02/18 12:12:28;;;;;;;10.75;4.53;;;8.90;99.90;;;;;;5054190;28;20037;-66
2024/02/18 12:14:55;;;;;;;10.40;5.50;;;9.00;99.90;;;;;;5058411;28;20048;-66
2024/02/18 12:17:22;;;;;;;8.98;4.60;;;8.90;99.90;;;;;;5054462;28;20067;-67
2024/02/18 12:19:48;;;;;;;10.15;4.53;;;8.90;99.90;;;;;;5053647;28;20041;-67
2024/02/18 12:22:24;;;;;;;8.77;4.55;;;8.90;99.90;;;;;;5047323;28;20040;-67
2024/02/18 12:24:51;;;;;;;9.57;4.55;;;8.90;99.90;;;;;;5051411;28;20040;-66
2024/02/18 12:27:18;;;;;;;9.63;4.57;;;8.80;99.90;;;;;;5052323;28;20041;-66
2024/02/18 12:29:48;;;;;;;6.93;4.50;;;8.80;99.90;;;;;;5051730;28;20061;-66
2024/02/18 12:32:14;;;;;;;11.07;4.75;;;8.80;99.90;;;;;;5049530;28;20442;-66
2024/02/18 12:34:43;;;;;;;7.00;4.45;;;8.80;99.90;;;;;;5052229;28;20049;-66
2024/02/18 12:37:10;;;;;;;8.95;4.30;;;8.80;99.90;;;;;;5056175;28;20063;-67
2024/02/18 12:39:36;;;;;;;11.00;4.85;;;8.70;99.90;;;;;;5052959;28;20045;-67